Time;durP1;ratioP1;P1;durP2;ratioP2;P2;SDS_P1;SDS_P2;PMS_P1;PMS_P2;Temp;Humidity;BMP_temperature;BMP_pressure;BME280_temperature;BME280_humidity;BME280_pressure;Samples;Min_cycle;Max_cycle;Signal;HPM_P1;HPM_P2
2021/09/29 00:03:32;;;;;;;5.93;5.43;;;;;;;7.85;100.00;101487.06;20962562;28;20221;-61
2021/09/29 00:13:35;;;;;;;7.40;5.60;;;;;;;7.79;100.00;101485.50;21002050;27;20302;-60
2021/09/29 00:33:37;;;;;;;7.60;6.83;;;;;;;7.62;100.00;101473.69;21131164;27;20299;-62
2021/09/29 00:43:39;;;;;;;6.37;5.77;;;;;;;7.59;100.00;101482.66;21062656;28;20230;-59
2021/09/29 01:13:43;;;;;;;7.07;6.27;;;;;;;7.53;100.00;101465.13;20828337;28;20566;-60
2021/09/29 01:23:57;;;;;;;6.43;5.83;;;;;;;7.53;100.00;101451.84;20776264;28;20589;-63
2021/09/29 01:43:57;;;;;;;7.25;6.57;;;;;;;7.47;100.00;101441.44;21146627;27;1364017;-67
2021/09/29 01:54:00;;;;;;;7.03;6.43;;;;;;;7.51;100.00;101458.13;21215238;28;20221;-61
2021/09/29 02:04:04;;;;;;;8.37;7.50;;;;;;;7.46;100.00;101454.75;21281904;27;20647;-61
2021/09/29 02:14:06;;;;;;;7.67;6.20;;;;;;;7.40;100.00;101450.50;21217173;27;20249;-62
2021/09/29 02:24:10;;;;;;;6.90;6.30;;;;;;;7.30;100.00;101449.06;21217946;28;20414;-67
2021/09/29 02:34:13;;;;;;;6.93;6.33;;;;;;;7.19;100.00;101441.47;21223782;28;20356;-64
2021/09/29 02:54:14;;;;;;;6.70;6.07;;;;;;;7.02;100.00;101449.09;21057837;27;21275;-60
2021/09/29 03:04:16;;;;;;;6.90;6.30;;;;;;;6.93;100.00;101448.50;21034853;27;20222;-60
2021/09/29 03:14:20;;;;;;;6.93;6.23;;;;;;;6.88;100.00;101441.56;21017734;27;20231;-60
2021/09/29 03:24:22;;;;;;;8.27;7.23;;;;;;;6.84;100.00;101434.63;20958051;27;20591;-63
2021/09/29 03:34:27;;;;;;;7.90;7.10;;;;;;;6.75;100.00;101439.34;21007168;27;20226;-61
2021/09/29 03:44:29;;;;;;;7.30;6.60;;;;;;;6.71;100.00;101427.09;20960823;27;20223;-59
2021/09/29 03:54:33;;;;;;;7.47;6.67;;;;;;;6.71;100.00;101425.31;20995712;27;20247;-60
2021/09/29 04:04:35;;;;;;;7.70;6.87;;;;;;;6.71;100.00;101421.78;20889093;28;20259;-60
2021/09/29 04:24:36;;;;;;;7.63;6.77;;;;;;;6.67;100.00;101426.31;21024252;27;20569;-60
2021/09/29 04:34:39;;;;;;;7.63;6.90;;;;;;;6.68;100.00;101427.16;20952802;28;20305;-67
2021/09/29 04:44:42;;;;;;;8.23;7.43;;;;;;;6.66;100.00;101427.22;20954369;28;20739;-64
2021/09/29 04:54:45;;;;;;;7.70;6.83;;;;;;;6.74;100.00;101427.88;20943597;28;20310;-69
2021/09/29 05:14:47;;;;;;;7.13;6.53;;;;;;;7.25;100.00;101424.44;20943183;27;20597;-60
2021/09/29 05:24:50;;;;;;;7.63;6.93;;;;;;;7.45;100.00;101432.66;20959908;28;20233;-62
2021/09/29 05:34:55;;;;;;;7.20;6.50;;;;;;;7.78;100.00;101419.13;20948528;28;20227;-64
2021/09/29 05:44:57;;;;;;;6.97;6.37;;;;;;;8.12;100.00;101430.28;21062759;27;20235;-64
2021/09/29 05:55:01;;;;;;;6.47;5.87;;;;;;;8.49;100.00;101412.97;21032333;27;20303;-65
2021/09/29 06:05:03;;;;;;;6.40;5.80;;;;;;;8.88;100.00;101416.75;20950293;28;20938;-64
2021/09/29 06:15:09;;;;;;;6.20;5.60;;;;;;;9.25;100.00;101417.94;20953173;28;20232;-65
2021/09/29 06:25:11;;;;;;;5.67;5.17;;;;;;;9.63;100.00;101406.53;20892277;28;20248;-64
2021/09/29 06:35:15;;;;;;;5.83;5.37;;;;;;;9.97;100.00;101402.38;20903666;28;20234;-66
2021/09/29 06:45:17;;;;;;;5.73;5.23;;;;;;;10.37;100.00;101406.81;20879413;28;20235;-64
2021/09/29 06:55:21;;;;;;;5.10;4.60;;;;;;;10.68;100.00;101416.91;20901894;28;20227;-64
2021/09/29 07:05:24;;;;;;;5.77;5.27;;;;;;;11.00;100.00;101402.88;20878403;28;20230;-64
2021/09/29 07:15:28;;;;;;;5.93;5.13;;;;;;;11.27;100.00;101399.78;20899216;28;20297;-64
2021/09/29 07:25:30;;;;;;;7.27;5.10;;;;;;;11.53;100.00;101394.00;20884330;28;20939;-66
2021/09/29 07:35:35;;;;;;;5.97;5.20;;;;;;;11.88;100.00;101390.41;20890428;28;20320;-65
2021/09/29 07:45:38;;;;;;;7.97;4.90;;;;;;;12.26;100.00;101391.03;20890122;28;20230;-65
2021/09/29 07:55:41;;;;;;;6.10;4.80;;;;;;;12.55;100.00;101384.09;20882458;28;20229;-65
2021/09/29 08:05:44;;;;;;;7.30;5.20;;;;;;;12.85;100.00;101373.47;20894368;28;20598;-65
2021/09/29 08:15:47;;;;;;;10.43;5.23;;;;;;;13.07;100.00;101361.50;20872567;28;20593;-65
2021/09/29 08:36:19;;;;;;;6.07;4.53;;;;;;;13.75;100.00;101351.22;20891987;28;20231;-65
2021/09/29 08:46:24;;;;;;;9.37;4.93;;;;;;;13.96;100.00;101331.97;20892918;28;20246;-65
2021/09/29 08:56:49;;;;;;;6.07;5.43;;;;;;;13.94;100.00;101331.19;20874806;28;20250;-66
2021/09/29 09:17:12;;;;;;;6.40;5.73;;;;;;;14.74;100.00;101325.16;20944965;28;20290;-65
2021/09/29 09:27:17;;;;;;;7.43;5.33;;;;;;;15.01;100.00;101294.75;20964366;28;20300;-65
2021/09/29 09:37:21;;;;;;;7.13;5.50;;;;;;;15.26;100.00;101294.81;20969689;28;20246;-65
2021/09/29 09:47:26;;;;;;;10.93;6.20;;;;;;;15.59;100.00;101280.03;20956175;28;20238;-65
2021/09/29 09:57:30;;;;;;;9.10;5.70;;;;;;;15.56;100.00;101266.81;20983328;28;20583;-65
2021/09/29 10:07:33;;;;;;;6.23;5.00;;;;;;;15.71;100.00;101273.78;20964883;28;20249;-66
2021/09/29 10:27:58;;;;;;;8.80;4.90;;;;;;;16.16;100.00;101246.28;20964491;28;20268;-66
2021/09/29 10:48:45;;;;;;;6.77;4.30;;;;;;;16.52;100.00;101234.63;20968455;28;20598;-65
2021/09/29 11:09:38;;;;;;;16.00;5.47;;;;;;;16.69;91.09;101206.41;20911407;28;20232;-66
2021/09/29 11:30:19;;;;;;;11.50;6.93;;;;;;;16.63;95.21;101171.88;20892431;28;20235;-64
2021/09/29 12:11:25;;;;;;;7.97;5.27;;;;;;;17.06;100.00;101141.59;20978381;28;20577;-64
2021/09/29 12:21:42;;;;;;;5.83;4.60;;;;;;;17.87;80.91;101144.09;20954536;28;20218;-65
2021/09/29 12:32:01;;;;;;;7.87;6.70;;;;;;;18.15;91.41;101132.72;20977235;28;20234;-64
2021/09/29 12:42:06;;;;;;;7.40;6.47;;;;;;;18.47;96.88;101142.69;20874424;28;20231;-66
2021/09/29 12:52:11;;;;;;;7.10;4.80;;;;;;;18.71;95.56;101140.66;20890649;28;20236;-65
2021/09/29 13:02:18;;;;;;;11.43;10.23;;;;;;;18.63;90.45;101091.75;20880194;28;20595;-64
2021/09/29 13:12:20;;;;;;;9.47;7.60;;;;;;;18.30;100.00;101127.88;20881135;28;20879;-65
2021/09/29 13:22:25;;;;;;;12.63;7.03;;;;;;;18.47;100.00;101110.25;20887341;28;20288;-64
2021/09/29 13:42:49;;;;;;;7.20;5.37;;;;;;;18.24;100.00;101121.13;20907899;28;20830;-64
2021/09/29 13:52:52;;;;;;;12.03;8.37;;;;;;;17.95;92.89;101085.75;20882468;28;20766;-65
2021/09/29 14:33:59;;;;;;;17.90;10.60;;;;;;;17.31;95.45;101100.91;20946179;28;20606;-63
2021/09/29 14:44:04;;;;;;;24.03;17.83;;;;;;;17.32;100.00;101108.00;20963520;28;20245;-63
2021/09/29 14:54:09;;;;;;;9.53;6.07;;;;;;;17.32;100.00;101091.84;20943528;28;20577;-63
2021/09/29 15:04:15;;;;;;;15.40;9.23;;;;;;;16.82;100.00;101087.75;20908166;28;20774;-65
2021/09/29 15:14:27;;;;;;;11.33;8.23;;;;;;;16.39;100.00;101069.47;20940244;28;20227;-63
2021/09/29 15:55:43;;;;;;;11.30;8.67;;;;;;;15.86;100.00;101068.13;20938485;28;20657;-64
2021/09/29 16:05:53;;;;;;;13.77;8.07;;;;;;;15.63;100.00;101071.66;20920365;28;20251;-65
2021/09/29 16:36:40;;;;;;;7.30;6.37;;;;;;;14.47;100.00;101065.59;20935661;28;20563;-65
2021/09/29 16:46:46;;;;;;;7.80;6.33;;;;;;;14.13;100.00;101070.53;20942971;28;20291;-65
2021/09/29 16:56:49;;;;;;;7.70;6.27;;;;;;;13.86;100.00;101067.00;20937341;28;20240;-65
2021/09/29 17:06:54;;;;;;;9.20;6.63;;;;;;;13.64;100.00;101064.88;20946856;28;20729;-64
2021/09/29 17:16:57;;;;;;;10.07;6.87;;;;;;;13.40;100.00;101063.78;20937560;28;20233;-76
2021/09/29 17:27:01;;;;;;;9.17;6.57;;;;;;;13.21;100.00;101062.25;20934464;28;20287;-68
2021/09/29 17:37:39;;;;;;;7.40;6.70;;;;;;;13.19;100.00;101066.00;20934914;28;20230;-65
2021/09/29 17:48:13;;;;;;;9.83;7.40;;;;;;;13.08;100.00;101063.97;20938452;28;20243;-67
2021/09/29 17:58:18;;;;;;;10.00;8.23;;;;;;;13.28;100.00;101057.41;20975151;28;20702;-65
2021/09/29 18:08:23;;;;;;;8.13;7.33;;;;;;;13.60;100.00;101063.34;20976513;28;20241;-64
2021/09/29 18:28:24;;;;;;;8.37;7.43;;;;;;;13.92;100.00;101070.13;21066616;27;20632;-68
2021/09/29 18:38:29;;;;;;;8.20;7.20;;;;;;;13.94;100.00;101057.50;21054980;27;20758;-65
2021/09/29 18:48:33;;;;;;;8.10;7.23;;;;;;;13.88;100.00;101049.88;21053953;27;20278;-62
2021/09/29 19:08:58;;;;;;;10.67;7.43;;;;;;;14.04;100.00;101060.41;21051162;27;20702;-63
2021/09/29 19:19:01;;;;;;;9.03;7.10;;;;;;;14.01;100.00;100996.19;21047779;27;20268;-73
2021/09/29 19:29:05;;;;;;;11.53;7.80;;;;;;;14.02;100.00;101046.22;21127898;27;20736;-68
2021/09/29 19:39:09;;;;;;;15.13;7.53;;;;;;;14.03;100.00;101048.81;21029289;28;20233;-66
2021/09/29 19:49:19;;;;;;;11.17;7.47;;;;;;;14.00;100.00;101038.31;21005058;28;20240;-61
2021/09/29 20:09:43;;;;;;;11.40;7.53;;;;;;;13.91;100.00;101055.00;20986895;28;20586;-63
2021/09/29 20:19:51;;;;;;;10.40;8.20;;;;;;;13.88;100.00;101057.91;21012764;28;21297;-65
2021/09/29 20:29:56;;;;;;;10.20;7.63;;;;;;;13.87;100.00;101058.88;20998913;27;20238;-63
2021/09/29 20:50:21;;;;;;;9.67;7.17;;;;;;;13.78;100.00;101064.81;20996891;28;20714;-67
2021/09/29 21:00:25;;;;;;;11.50;7.40;;;;;;;13.72;100.00;101059.88;20991088;28;20237;-72
2021/09/29 21:10:29;;;;;;;10.37;7.47;;;;;;;13.61;100.00;101057.03;20990748;28;20648;-71
2021/09/29 21:20:35;;;;;;;12.57;7.07;;;;;;;13.54;100.00;101063.72;20990150;28;20280;-71
2021/09/29 21:30:43;;;;;;;11.73;7.00;;;;;;;13.44;100.00;101059.94;20980945;28;20612;-71
2021/09/29 21:41:10;;;;;;;10.03;7.07;;;;;;;13.39;100.00;101062.94;20981859;28;20431;-71
2021/09/29 22:33:01;;;;;;;10.10;7.17;;;;;;;12.68;100.00;101056.69;21048778;28;20214;-69
2021/09/29 22:43:16;;;;;;;10.07;6.93;;;;;;;12.43;100.00;101076.91;21055561;28;20345;-66
2021/09/29 22:53:52;;;;;;;10.13;7.03;;;;;;;12.40;100.00;101058.34;21068935;28;20296;-70
2021/09/29 23:14:35;;;;;;;10.07;6.70;;;;;;;12.47;100.00;101075.75;21082359;28;20221;-67
2021/09/29 23:34:59;;;;;;;8.77;6.50;;;;;;;12.58;100.00;101070.63;21001602;28;20303;-68
2021/09/29 23:45:02;;;;;;;7.57;6.17;;;;;;;12.56;100.00;101077.00;20998227;28;20257;-69
2021/09/29 23:55:07;;;;;;;9.07;6.53;;;;;;;12.35;100.00;101073.81;21005896;28;20229;-68
